sensor_id;sensor_type;location;lat;lon;timestamp;temperature;humidity
16404;DHT22;8311;50.158;8.642;2023-05-10T00:01:29;22.60;50.50
16404;DHT22;8311;50.158;8.642;2023-05-10T00:04:24;22.60;50.60
16404;DHT22;8311;50.158;8.642;2023-05-10T00:07:19;22.60;50.40
16404;DHT22;8311;50.158;8.642;2023-05-10T00:10:12;22.60;50.60
16404;DHT22;8311;50.158;8.642;2023-05-10T00:13:06;22.60;50.80
16404;DHT22;8311;50.158;8.642;2023-05-10T00:15:59;22.60;50.90
16404;DHT22;8311;50.158;8.642;2023-05-10T00:18:52;22.60;51.00
16404;DHT22;8311;50.158;8.642;2023-05-10T00:21:46;22.60;51.10
16404;DHT22;8311;50.158;8.642;2023-05-10T00:24:40;22.60;51.20
16404;DHT22;8311;50.158;8.642;2023-05-10T00:27:33;22.60;51.30
16404;DHT22;8311;50.158;8.642;2023-05-10T00:30:26;22.60;51.10
16404;DHT22;8311;50.158;8.642;2023-05-10T00:33:19;22.60;51.20
16404;DHT22;8311;50.158;8.642;2023-05-10T00:36:12;22.60;51.20
16404;DHT22;8311;50.158;8.642;2023-05-10T00:39:07;22.60;51.00
16404;DHT22;8311;50.158;8.642;2023-05-10T00:42:00;22.60;51.00
16404;DHT22;8311;50.158;8.642;2023-05-10T00:44:54;22.60;51.20
16404;DHT22;8311;50.158;8.642;2023-05-10T00:47:48;22.60;51.20
16404;DHT22;8311;50.158;8.642;2023-05-10T00:50:41;22.60;51.20
16404;DHT22;8311;50.158;8.642;2023-05-10T00:53:35;22.60;51.30
16404;DHT22;8311;50.158;8.642;2023-05-10T00:56:29;22.60;51.10
16404;DHT22;8311;50.158;8.642;2023-05-10T00:59:22;22.60;51.20
16404;DHT22;8311;50.158;8.642;2023-05-10T01:02:15;22.60;51.40
16404;DHT22;8311;50.158;8.642;2023-05-10T01:05:08;22.60;51.20
16404;DHT22;8311;50.158;8.642;2023-05-10T01:08:02;22.60;51.30
16404;DHT22;8311;50.158;8.642;2023-05-10T01:10:55;22.60;51.40
16404;DHT22;8311;50.158;8.642;2023-05-10T01:13:54;22.60;51.40
16404;DHT22;8311;50.158;8.642;2023-05-10T01:16:49;22.60;51.30
16404;DHT22;8311;50.158;8.642;2023-05-10T01:19:43;22.60;51.40
16404;DHT22;8311;50.158;8.642;2023-05-10T01:23:03;22.60;51.40
16404;DHT22;8311;50.158;8.642;2023-05-10T01:26:24;22.60;51.50
16404;DHT22;8311;50.158;8.642;2023-05-10T01:33:08;22.60;51.60
16404;DHT22;8311;50.158;8.642;2023-05-10T01:36:07;22.60;51.50
16404;DHT22;8311;50.158;8.642;2023-05-10T01:39:04;22.60;52.10
16404;DHT22;8311;50.158;8.642;2023-05-10T01:42:04;22.60;51.60
16404;DHT22;8311;50.158;8.642;2023-05-10T01:45:08;22.60;51.60
16404;DHT22;8311;50.158;8.642;2023-05-10T01:48:06;22.60;51.50
16404;DHT22;8311;50.158;8.642;2023-05-10T01:51:00;22.60;52.10
16404;DHT22;8311;50.158;8.642;2023-05-10T01:54:00;22.60;51.50
16404;DHT22;8311;50.158;8.642;2023-05-10T01:57:03;22.60;51.60
16404;DHT22;8311;50.158;8.642;2023-05-10T01:59:59;22.60;51.60
16404;DHT22;8311;50.158;8.642;2023-05-10T02:02:55;22.60;51.50
16404;DHT22;8311;50.158;8.642;2023-05-10T02:05:52;22.60;51.60
16404;DHT22;8311;50.158;8.642;2023-05-10T02:08:46;22.60;51.60
16404;DHT22;8311;50.158;8.642;2023-05-10T02:11:41;22.60;51.60
16404;DHT22;8311;50.158;8.642;2023-05-10T02:14:36;22.60;51.70
16404;DHT22;8311;50.158;8.642;2023-05-10T02:17:30;22.60;51.60
16404;DHT22;8311;50.158;8.642;2023-05-10T02:20:25;22.60;51.60
16404;DHT22;8311;50.158;8.642;2023-05-10T02:23:21;22.60;52.20
16404;DHT22;8311;50.158;8.642;2023-05-10T02:26:16;22.60;51.60
16404;DHT22;8311;50.158;8.642;2023-05-10T02:29:12;22.60;51.60
16404;DHT22;8311;50.158;8.642;2023-05-10T02:32:08;22.60;52.20
16404;DHT22;8311;50.158;8.642;2023-05-10T02:35:04;22.60;51.60
16404;DHT22;8311;50.158;8.642;2023-05-10T02:37:58;22.60;51.60
16404;DHT22;8311;50.158;8.642;2023-05-10T02:40:53;22.60;51.60
16404;DHT22;8311;50.158;8.642;2023-05-10T02:43:50;22.60;51.70
16404;DHT22;8311;50.158;8.642;2023-05-10T02:46:43;22.60;51.70
16404;DHT22;8311;50.158;8.642;2023-05-10T02:49:37;22.60;51.70
16404;DHT22;8311;50.158;8.642;2023-05-10T02:52:37;22.60;51.70
16404;DHT22;8311;50.158;8.642;2023-05-10T02:55:35;22.60;51.70
16404;DHT22;8311;50.158;8.642;2023-05-10T02:58:30;22.60;51.70
16404;DHT22;8311;50.158;8.642;2023-05-10T03:01:24;22.60;51.70
16404;DHT22;8311;50.158;8.642;2023-05-10T03:04:17;22.60;51.70
16404;DHT22;8311;50.158;8.642;2023-05-10T03:07:10;22.50;51.70
16404;DHT22;8311;50.158;8.642;2023-05-10T03:10:05;22.60;51.70
16404;DHT22;8311;50.158;8.642;2023-05-10T03:13:07;22.50;51.60
16404;DHT22;8311;50.158;8.642;2023-05-10T03:16:08;22.50;51.60
16404;DHT22;8311;50.158;8.642;2023-05-10T03:19:09;22.50;51.70
16404;DHT22;8311;50.158;8.642;2023-05-10T03:22:10;22.60;51.70
16404;DHT22;8311;50.158;8.642;2023-05-10T03:25:06;22.50;51.70
16404;DHT22;8311;50.158;8.642;2023-05-10T03:28:02;22.50;51.70
16404;DHT22;8311;50.158;8.642;2023-05-10T03:30:58;22.60;51.80
16404;DHT22;8311;50.158;8.642;2023-05-10T03:33:53;22.50;51.70
16404;DHT22;8311;50.158;8.642;2023-05-10T03:36:46;22.50;51.70
16404;DHT22;8311;50.158;8.642;2023-05-10T03:39:39;22.50;51.70
16404;DHT22;8311;50.158;8.642;2023-05-10T03:42:32;22.50;51.70
16404;DHT22;8311;50.158;8.642;2023-05-10T03:45:25;22.50;51.70
16404;DHT22;8311;50.158;8.642;2023-05-10T03:48:19;22.50;51.70
16404;DHT22;8311;50.158;8.642;2023-05-10T03:51:14;22.50;51.70
16404;DHT22;8311;50.158;8.642;2023-05-10T03:54:07;22.50;51.80
16404;DHT22;8311;50.158;8.642;2023-05-10T03:57:00;22.50;51.70
16404;DHT22;8311;50.158;8.642;2023-05-10T03:59:54;22.50;51.70
16404;DHT22;8311;50.158;8.642;2023-05-10T04:02:47;22.50;51.70
16404;DHT22;8311;50.158;8.642;2023-05-10T04:05:41;22.50;51.70
16404;DHT22;8311;50.158;8.642;2023-05-10T04:08:36;22.50;51.70
16404;DHT22;8311;50.158;8.642;2023-05-10T04:11:29;22.50;51.70
16404;DHT22;8311;50.158;8.642;2023-05-10T04:14:22;22.50;51.70
16404;DHT22;8311;50.158;8.642;2023-05-10T04:17:15;22.50;51.70
16404;DHT22;8311;50.158;8.642;2023-05-10T04:20:09;22.50;51.70
16404;DHT22;8311;50.158;8.642;2023-05-10T04:23:03;22.50;52.30
16404;DHT22;8311;50.158;8.642;2023-05-10T04:26:02;22.50;51.70
16404;DHT22;8311;50.158;8.642;2023-05-10T04:28:55;22.50;51.70
16404;DHT22;8311;50.158;8.642;2023-05-10T04:31:48;22.50;51.70
16404;DHT22;8311;50.158;8.642;2023-05-10T04:34:42;22.50;51.70
16404;DHT22;8311;50.158;8.642;2023-05-10T04:37:36;22.50;51.70
16404;DHT22;8311;50.158;8.642;2023-05-10T04:40:29;22.50;51.70
16404;DHT22;8311;50.158;8.642;2023-05-10T04:43:24;22.50;51.70
16404;DHT22;8311;50.158;8.642;2023-05-10T04:46:17;22.50;51.70
16404;DHT22;8311;50.158;8.642;2023-05-10T04:49:10;22.50;52.00
16404;DHT22;8311;50.158;8.642;2023-05-10T04:52:03;22.50;51.70
16404;DHT22;8311;50.158;8.642;2023-05-10T04:54:56;22.50;51.70
16404;DHT22;8311;50.158;8.642;2023-05-10T04:57:49;22.50;51.70
16404;DHT22;8311;50.158;8.642;2023-05-10T05:00:44;22.50;51.70
16404;DHT22;8311;50.158;8.642;2023-05-10T05:03:37;22.50;51.70
16404;DHT22;8311;50.158;8.642;2023-05-10T05:06:30;22.50;51.70
16404;DHT22;8311;50.158;8.642;2023-05-10T05:09:23;22.50;51.80
16404;DHT22;8311;50.158;8.642;2023-05-10T05:12:17;22.50;51.80
16404;DHT22;8311;50.158;8.642;2023-05-10T05:15:10;22.50;51.80
16404;DHT22;8311;50.158;8.642;2023-05-10T05:18:05;22.50;51.80
16404;DHT22;8311;50.158;8.642;2023-05-10T05:20:58;22.50;51.80
16404;DHT22;8311;50.158;8.642;2023-05-10T05:23:51;22.50;51.80
16404;DHT22;8311;50.158;8.642;2023-05-10T05:26:44;22.50;51.80
16404;DHT22;8311;50.158;8.642;2023-05-10T05:29:37;22.50;51.80
16404;DHT22;8311;50.158;8.642;2023-05-10T05:32:30;22.50;51.80
16404;DHT22;8311;50.158;8.642;2023-05-10T05:35:25;22.50;51.80
16404;DHT22;8311;50.158;8.642;2023-05-10T05:38:18;22.50;51.80
16404;DHT22;8311;50.158;8.642;2023-05-10T05:41:12;22.50;51.80
16404;DHT22;8311;50.158;8.642;2023-05-10T05:44:05;22.50;51.80
16404;DHT22;8311;50.158;8.642;2023-05-10T05:46:59;22.50;51.80
16404;DHT22;8311;50.158;8.642;2023-05-10T05:49:52;22.50;51.80
16404;DHT22;8311;50.158;8.642;2023-05-10T05:52:48;22.50;51.80
16404;DHT22;8311;50.158;8.642;2023-05-10T05:55:51;22.50;51.80
16404;DHT22;8311;50.158;8.642;2023-05-10T05:58:44;22.50;51.80
16404;DHT22;8311;50.158;8.642;2023-05-10T06:01:39;22.50;51.80
16404;DHT22;8311;50.158;8.642;2023-05-10T06:04:32;22.50;51.80
16404;DHT22;8311;50.158;8.642;2023-05-10T06:07:25;22.50;51.80
16404;DHT22;8311;50.158;8.642;2023-05-10T06:10:20;22.50;51.80
16404;DHT22;8311;50.158;8.642;2023-05-10T06:13:13;22.50;51.80
16404;DHT22;8311;50.158;8.642;2023-05-10T06:16:07;22.50;51.70
16404;DHT22;8311;50.158;8.642;2023-05-10T06:19:00;22.50;51.70
16404;DHT22;8311;50.158;8.642;2023-05-10T06:21:54;22.50;51.70
16404;DHT22;8311;50.158;8.642;2023-05-10T06:24:48;22.50;51.60
16404;DHT22;8311;50.158;8.642;2023-05-10T06:27:43;22.50;51.60
16404;DHT22;8311;50.158;8.642;2023-05-10T06:30:40;22.40;51.50
16404;DHT22;8311;50.158;8.642;2023-05-10T06:33:33;22.50;51.50
16404;DHT22;8311;50.158;8.642;2023-05-10T06:36:26;22.50;51.50
16404;DHT22;8311;50.158;8.642;2023-05-10T06:39:20;22.50;52.10
16404;DHT22;8311;50.158;8.642;2023-05-10T06:42:12;22.50;51.40
16404;DHT22;8311;50.158;8.642;2023-05-10T06:45:08;22.50;51.40
16404;DHT22;8311;50.158;8.642;2023-05-10T06:48:02;22.50;51.40
16404;DHT22;8311;50.158;8.642;2023-05-10T06:50:56;22.50;51.40
16404;DHT22;8311;50.158;8.642;2023-05-10T06:53:48;22.50;51.30
16404;DHT22;8311;50.158;8.642;2023-05-10T06:56:42;22.50;51.30
16404;DHT22;8311;50.158;8.642;2023-05-10T06:59:35;22.50;51.30
16404;DHT22;8311;50.158;8.642;2023-05-10T07:02:31;22.50;51.30
16404;DHT22;8311;50.158;8.642;2023-05-10T07:05:24;22.50;51.20
16404;DHT22;8311;50.158;8.642;2023-05-10T07:08:20;22.50;51.20
16404;DHT22;8311;50.158;8.642;2023-05-10T07:11:14;22.50;51.20
16404;DHT22;8311;50.158;8.642;2023-05-10T07:14:06;22.40;51.20
16404;DHT22;8311;50.158;8.642;2023-05-10T07:16:59;22.50;51.20
16404;DHT22;8311;50.158;8.642;2023-05-10T07:19:54;22.40;51.10
16404;DHT22;8311;50.158;8.642;2023-05-10T07:22:47;22.40;51.10
16404;DHT22;8311;50.158;8.642;2023-05-10T07:25:40;22.40;51.10
16404;DHT22;8311;50.158;8.642;2023-05-10T07:28:33;22.40;51.00
16404;DHT22;8311;50.158;8.642;2023-05-10T07:31:28;22.40;51.10
16404;DHT22;8311;50.158;8.642;2023-05-10T07:34:21;22.50;51.20
16404;DHT22;8311;50.158;8.642;2023-05-10T07:37:16;22.40;51.10
16404;DHT22;8311;50.158;8.642;2023-05-10T07:40:10;22.40;51.10
16404;DHT22;8311;50.158;8.642;2023-05-10T07:43:04;22.40;51.10
16404;DHT22;8311;50.158;8.642;2023-05-10T07:45:57;22.40;51.10
16404;DHT22;8311;50.158;8.642;2023-05-10T07:48:51;22.40;51.10
16404;DHT22;8311;50.158;8.642;2023-05-10T07:51:44;22.40;51.10
16404;DHT22;8311;50.158;8.642;2023-05-10T07:54:39;22.40;51.10
16404;DHT22;8311;50.158;8.642;2023-05-10T07:57:32;22.40;51.10
16404;DHT22;8311;50.158;8.642;2023-05-10T08:00:25;22.40;51.10
16404;DHT22;8311;50.158;8.642;2023-05-10T08:03:18;22.40;51.00
16404;DHT22;8311;50.158;8.642;2023-05-10T08:06:12;22.40;51.10
16404;DHT22;8311;50.158;8.642;2023-05-10T08:09:04;22.40;51.00
16404;DHT22;8311;50.158;8.642;2023-05-10T08:11:59;22.40;51.10
16404;DHT22;8311;50.158;8.642;2023-05-10T08:14:52;22.40;51.00
16404;DHT22;8311;50.158;8.642;2023-05-10T08:17:45;22.40;51.00
16404;DHT22;8311;50.158;8.642;2023-05-10T08:20:39;22.40;51.10
16404;DHT22;8311;50.158;8.642;2023-05-10T08:23:32;22.40;51.00
16404;DHT22;8311;50.158;8.642;2023-05-10T08:26:25;22.40;51.10
16404;DHT22;8311;50.158;8.642;2023-05-10T08:29:19;22.40;51.00
16404;DHT22;8311;50.158;8.642;2023-05-10T08:32:13;22.40;51.00
16404;DHT22;8311;50.158;8.642;2023-05-10T08:35:06;22.40;51.00
16404;DHT22;8311;50.158;8.642;2023-05-10T08:38:00;22.40;51.00
16404;DHT22;8311;50.158;8.642;2023-05-10T08:40:54;22.40;51.00
16404;DHT22;8311;50.158;8.642;2023-05-10T08:43:50;22.40;51.00
16404;DHT22;8311;50.158;8.642;2023-05-10T08:46:46;22.40;50.90
16404;DHT22;8311;50.158;8.642;2023-05-10T08:49:40;22.40;50.90
16404;DHT22;8311;50.158;8.642;2023-05-10T08:52:38;22.40;50.90
16404;DHT22;8311;50.158;8.642;2023-05-10T08:55:33;22.40;50.80
16404;DHT22;8311;50.158;8.642;2023-05-10T08:58:28;22.40;50.90
16404;DHT22;8311;50.158;8.642;2023-05-10T09:01:22;22.40;50.80
16404;DHT22;8311;50.158;8.642;2023-05-10T09:04:19;22.40;50.80
16404;DHT22;8311;50.158;8.642;2023-05-10T09:07:13;22.40;50.80
16404;DHT22;8311;50.158;8.642;2023-05-10T09:10:07;22.40;50.90
16404;DHT22;8311;50.158;8.642;2023-05-10T09:13:00;22.40;51.00
16404;DHT22;8311;50.158;8.642;2023-05-10T09:15:55;22.40;50.90
16404;DHT22;8311;50.158;8.642;2023-05-10T09:18:54;22.40;51.00
16404;DHT22;8311;50.158;8.642;2023-05-10T09:21:49;22.40;51.00
16404;DHT22;8311;50.158;8.642;2023-05-10T09:24:42;22.40;51.00
16404;DHT22;8311;50.158;8.642;2023-05-10T09:27:38;22.40;50.90
16404;DHT22;8311;50.158;8.642;2023-05-10T09:30:31;22.40;51.00
16404;DHT22;8311;50.158;8.642;2023-05-10T09:33:25;22.40;50.90
16404;DHT22;8311;50.158;8.642;2023-05-10T09:36:18;22.40;51.00
16404;DHT22;8311;50.158;8.642;2023-05-10T09:39:12;22.40;51.00
16404;DHT22;8311;50.158;8.642;2023-05-10T09:42:09;22.40;50.90
16404;DHT22;8311;50.158;8.642;2023-05-10T09:45:04;22.40;51.00
16404;DHT22;8311;50.158;8.642;2023-05-10T09:47:58;22.40;51.00
16404;DHT22;8311;50.158;8.642;2023-05-10T09:50:56;22.40;50.90
16404;DHT22;8311;50.158;8.642;2023-05-10T09:54:08;22.40;50.90
16404;DHT22;8311;50.158;8.642;2023-05-10T09:57:04;22.40;50.90
16404;DHT22;8311;50.158;8.642;2023-05-10T10:00:00;22.40;50.90
16404;DHT22;8311;50.158;8.642;2023-05-10T10:02:57;22.40;50.90
16404;DHT22;8311;50.158;8.642;2023-05-10T10:05:50;22.40;50.80
16404;DHT22;8311;50.158;8.642;2023-05-10T10:08:45;22.40;50.80
16404;DHT22;8311;50.158;8.642;2023-05-10T10:11:38;22.40;50.80
16404;DHT22;8311;50.158;8.642;2023-05-10T10:14:34;22.40;50.60
16404;DHT22;8311;50.158;8.642;2023-05-10T10:17:27;22.40;50.60
16404;DHT22;8311;50.158;8.642;2023-05-10T10:20:23;22.40;50.50
16404;DHT22;8311;50.158;8.642;2023-05-10T10:23:17;22.40;50.50
16404;DHT22;8311;50.158;8.642;2023-05-10T10:26:11;22.40;50.40
16404;DHT22;8311;50.158;8.642;2023-05-10T10:29:14;22.40;50.30
16404;DHT22;8311;50.158;8.642;2023-05-10T10:32:19;22.40;50.30
16404;DHT22;8311;50.158;8.642;2023-05-10T10:35:15;22.40;50.40
16404;DHT22;8311;50.158;8.642;2023-05-10T10:38:08;22.40;50.30
16404;DHT22;8311;50.158;8.642;2023-05-10T10:41:02;22.40;50.30
16404;DHT22;8311;50.158;8.642;2023-05-10T10:44:22;22.40;50.30
16404;DHT22;8311;50.158;8.642;2023-05-10T10:47:28;22.40;50.20
16404;DHT22;8311;50.158;8.642;2023-05-10T10:50:25;22.40;50.40
16404;DHT22;8311;50.158;8.642;2023-05-10T10:53:18;22.40;50.70
16404;DHT22;8311;50.158;8.642;2023-05-10T10:56:12;22.40;50.20
16404;DHT22;8311;50.158;8.642;2023-05-10T10:59:08;22.40;50.20
16404;DHT22;8311;50.158;8.642;2023-05-10T11:02:02;22.40;50.20
16404;DHT22;8311;50.158;8.642;2023-05-10T11:04:57;22.40;50.10
16404;DHT22;8311;50.158;8.642;2023-05-10T11:07:52;22.40;50.30
16404;DHT22;8311;50.158;8.642;2023-05-10T11:10:51;22.40;50.40
16404;DHT22;8311;50.158;8.642;2023-05-10T11:13:46;22.40;50.70
16404;DHT22;8311;50.158;8.642;2023-05-10T11:16:43;22.40;50.70
16404;DHT22;8311;50.158;8.642;2023-05-10T11:19:37;22.40;50.60
16404;DHT22;8311;50.158;8.642;2023-05-10T11:22:52;22.40;50.30
16404;DHT22;8311;50.158;8.642;2023-05-10T11:25:48;22.40;50.60
16404;DHT22;8311;50.158;8.642;2023-05-10T11:28:42;22.40;50.70
16404;DHT22;8311;50.158;8.642;2023-05-10T11:31:42;22.40;50.60
16404;DHT22;8311;50.158;8.642;2023-05-10T11:34:35;22.40;50.50
16404;DHT22;8311;50.158;8.642;2023-05-10T11:37:29;22.40;50.60
16404;DHT22;8311;50.158;8.642;2023-05-10T11:40:27;22.40;50.70
16404;DHT22;8311;50.158;8.642;2023-05-10T11:43:23;22.40;50.50
16404;DHT22;8311;50.158;8.642;2023-05-10T11:46:21;22.40;50.60
16404;DHT22;8311;50.158;8.642;2023-05-10T11:49:15;22.40;50.50
16404;DHT22;8311;50.158;8.642;2023-05-10T11:52:09;22.40;50.50
16404;DHT22;8311;50.158;8.642;2023-05-10T11:55:03;22.40;50.50
16404;DHT22;8311;50.158;8.642;2023-05-10T11:58:01;22.40;50.50
16404;DHT22;8311;50.158;8.642;2023-05-10T12:00:55;22.40;50.30
16404;DHT22;8311;50.158;8.642;2023-05-10T12:03:49;22.40;50.30
16404;DHT22;8311;50.158;8.642;2023-05-10T12:06:42;22.40;50.10
16404;DHT22;8311;50.158;8.642;2023-05-10T12:09:37;22.40;50.20
16404;DHT22;8311;50.158;8.642;2023-05-10T12:12:39;22.40;50.10
16404;DHT22;8311;50.158;8.642;2023-05-10T12:15:35;22.30;50.20
16404;DHT22;8311;50.158;8.642;2023-05-10T12:18:27;22.40;50.30
16404;DHT22;8311;50.158;8.642;2023-05-10T12:21:21;22.40;50.30
16404;DHT22;8311;50.158;8.642;2023-05-10T12:24:15;22.40;50.30
16404;DHT22;8311;50.158;8.642;2023-05-10T12:27:10;22.40;50.60
16404;DHT22;8311;50.158;8.642;2023-05-10T12:30:05;22.30;50.40
16404;DHT22;8311;50.158;8.642;2023-05-10T12:33:01;22.40;50.30
16404;DHT22;8311;50.158;8.642;2023-05-10T12:35:54;22.40;50.40
16404;DHT22;8311;50.158;8.642;2023-05-10T12:38:48;22.40;50.20
16404;DHT22;8311;50.158;8.642;2023-05-10T12:41:44;22.40;50.20
16404;DHT22;8311;50.158;8.642;2023-05-10T12:44:38;22.40;50.00
16404;DHT22;8311;50.158;8.642;2023-05-10T12:47:32;22.40;50.30
16404;DHT22;8311;50.158;8.642;2023-05-10T12:50:27;22.40;50.00
16404;DHT22;8311;50.158;8.642;2023-05-10T12:53:21;22.40;50.20
16404;DHT22;8311;50.158;8.642;2023-05-10T12:56:15;22.40;50.10
16404;DHT22;8311;50.158;8.642;2023-05-10T12:59:08;22.30;50.20
16404;DHT22;8311;50.158;8.642;2023-05-10T13:02:01;22.30;50.00
16404;DHT22;8311;50.158;8.642;2023-05-10T13:04:54;22.40;50.40
16404;DHT22;8311;50.158;8.642;2023-05-10T13:07:49;22.40;50.10
16404;DHT22;8311;50.158;8.642;2023-05-10T13:10:42;22.40;50.40
16404;DHT22;8311;50.158;8.642;2023-05-10T13:13:36;22.40;50.00
16404;DHT22;8311;50.158;8.642;2023-05-10T13:16:28;22.40;50.00
16404;DHT22;8311;50.158;8.642;2023-05-10T13:19:21;22.40;49.90
16404;DHT22;8311;50.158;8.642;2023-05-10T13:22:15;22.40;49.80
16404;DHT22;8311;50.158;8.642;2023-05-10T13:25:21;22.40;50.00
16404;DHT22;8311;50.158;8.642;2023-05-10T13:28:14;22.30;50.00
16404;DHT22;8311;50.158;8.642;2023-05-10T13:31:07;22.30;49.80
16404;DHT22;8311;50.158;8.642;2023-05-10T13:34:01;22.30;50.20
16404;DHT22;8311;50.158;8.642;2023-05-10T13:36:54;22.30;49.60
16404;DHT22;8311;50.158;8.642;2023-05-10T13:39:49;22.30;49.70
16404;DHT22;8311;50.158;8.642;2023-05-10T13:42:43;22.30;49.70
16404;DHT22;8311;50.158;8.642;2023-05-10T13:45:37;22.30;49.80
16404;DHT22;8311;50.158;8.642;2023-05-10T13:48:31;22.30;49.60
16404;DHT22;8311;50.158;8.642;2023-05-10T13:51:24;22.30;49.70
16404;DHT22;8311;50.158;8.642;2023-05-10T13:54:17;22.30;50.30
16404;DHT22;8311;50.158;8.642;2023-05-10T13:57:11;22.30;49.80
16404;DHT22;8311;50.158;8.642;2023-05-10T14:00:09;22.30;49.70
16404;DHT22;8311;50.158;8.642;2023-05-10T14:03:03;22.30;49.60
16404;DHT22;8311;50.158;8.642;2023-05-10T14:05:58;22.30;49.70
16404;DHT22;8311;50.158;8.642;2023-05-10T14:08:51;22.30;49.60
16404;DHT22;8311;50.158;8.642;2023-05-10T14:11:46;22.30;49.60
16404;DHT22;8311;50.158;8.642;2023-05-10T14:14:38;22.40;49.60
16404;DHT22;8311;50.158;8.642;2023-05-10T14:17:33;22.30;49.50
16404;DHT22;8311;50.158;8.642;2023-05-10T14:20:27;22.30;49.50
16404;DHT22;8311;50.158;8.642;2023-05-10T14:23:21;22.30;49.50
16404;DHT22;8311;50.158;8.642;2023-05-10T14:26:16;22.30;49.60
16404;DHT22;8311;50.158;8.642;2023-05-10T14:29:16;22.30;49.60
16404;DHT22;8311;50.158;8.642;2023-05-10T14:32:10;22.30;49.40
16404;DHT22;8311;50.158;8.642;2023-05-10T14:35:05;22.30;49.50
16404;DHT22;8311;50.158;8.642;2023-05-10T14:38:02;22.30;49.50
16404;DHT22;8311;50.158;8.642;2023-05-10T14:40:56;22.30;49.50
16404;DHT22;8311;50.158;8.642;2023-05-10T14:43:50;22.30;49.50
16404;DHT22;8311;50.158;8.642;2023-05-10T14:46:43;22.30;49.50
16404;DHT22;8311;50.158;8.642;2023-05-10T14:49:37;22.30;49.50
16404;DHT22;8311;50.158;8.642;2023-05-10T14:52:31;22.30;49.30
16404;DHT22;8311;50.158;8.642;2023-05-10T14:55:25;22.30;49.40
16404;DHT22;8311;50.158;8.642;2023-05-10T14:58:18;22.30;49.40
16404;DHT22;8311;50.158;8.642;2023-05-10T15:01:11;22.30;49.50
16404;DHT22;8311;50.158;8.642;2023-05-10T15:04:05;22.30;49.40
16404;DHT22;8311;50.158;8.642;2023-05-10T15:06:59;22.30;49.40
16404;DHT22;8311;50.158;8.642;2023-05-10T15:09:53;22.30;49.30
16404;DHT22;8311;50.158;8.642;2023-05-10T15:12:47;22.30;49.30
16404;DHT22;8311;50.158;8.642;2023-05-10T15:15:41;22.30;49.30
16404;DHT22;8311;50.158;8.642;2023-05-10T15:18:34;22.30;49.40
16404;DHT22;8311;50.158;8.642;2023-05-10T15:21:27;22.30;49.30
16404;DHT22;8311;50.158;8.642;2023-05-10T15:24:20;22.30;49.90
16404;DHT22;8311;50.158;8.642;2023-05-10T15:27:14;22.30;49.20
16404;DHT22;8311;50.158;8.642;2023-05-10T15:30:08;22.30;49.30
16404;DHT22;8311;50.158;8.642;2023-05-10T15:33:00;22.30;49.20
16404;DHT22;8311;50.158;8.642;2023-05-10T15:35:54;22.30;49.20
16404;DHT22;8311;50.158;8.642;2023-05-10T15:38:47;22.30;49.20
16404;DHT22;8311;50.158;8.642;2023-05-10T15:41:41;22.30;49.30
16404;DHT22;8311;50.158;8.642;2023-05-10T15:44:35;22.30;49.30
16404;DHT22;8311;50.158;8.642;2023-05-10T15:47:30;22.30;49.20
16404;DHT22;8311;50.158;8.642;2023-05-10T15:50:23;22.30;49.20
16404;DHT22;8311;50.158;8.642;2023-05-10T15:53:17;22.30;49.20
16404;DHT22;8311;50.158;8.642;2023-05-10T15:56:11;22.30;49.20
16404;DHT22;8311;50.158;8.642;2023-05-10T15:59:05;22.30;49.20
16404;DHT22;8311;50.158;8.642;2023-05-10T16:02:01;22.30;49.20
16404;DHT22;8311;50.158;8.642;2023-05-10T16:04:56;22.30;49.20
16404;DHT22;8311;50.158;8.642;2023-05-10T16:07:50;22.30;49.20
16404;DHT22;8311;50.158;8.642;2023-05-10T16:10:43;22.30;49.30
16404;DHT22;8311;50.158;8.642;2023-05-10T16:13:36;22.30;49.20
16404;DHT22;8311;50.158;8.642;2023-05-10T16:16:29;22.30;49.30
16404;DHT22;8311;50.158;8.642;2023-05-10T16:19:23;22.30;49.20
16404;DHT22;8311;50.158;8.642;2023-05-10T16:22:21;22.30;49.30
16404;DHT22;8311;50.158;8.642;2023-05-10T16:25:18;22.30;49.40
16404;DHT22;8311;50.158;8.642;2023-05-10T16:28:11;22.30;49.40
16404;DHT22;8311;50.158;8.642;2023-05-10T16:31:04;22.30;49.30
16404;DHT22;8311;50.158;8.642;2023-05-10T16:33:57;22.30;49.30
16404;DHT22;8311;50.158;8.642;2023-05-10T16:36:52;22.30;49.40
16404;DHT22;8311;50.158;8.642;2023-05-10T16:39:46;22.30;49.40
16404;DHT22;8311;50.158;8.642;2023-05-10T16:42:39;22.30;49.30
16404;DHT22;8311;50.158;8.642;2023-05-10T16:45:32;22.30;50.00
16404;DHT22;8311;50.158;8.642;2023-05-10T16:48:26;22.30;49.40
16404;DHT22;8311;50.158;8.642;2023-05-10T16:51:19;22.30;49.30
16404;DHT22;8311;50.158;8.642;2023-05-10T16:54:13;22.30;49.30
16404;DHT22;8311;50.158;8.642;2023-05-10T16:57:08;22.30;49.40
16404;DHT22;8311;50.158;8.642;2023-05-10T17:00:01;22.30;49.50
16404;DHT22;8311;50.158;8.642;2023-05-10T17:02:55;22.30;49.30
16404;DHT22;8311;50.158;8.642;2023-05-10T17:05:49;22.30;49.30
16404;DHT22;8311;50.158;8.642;2023-05-10T17:08:44;22.30;49.30
16404;DHT22;8311;50.158;8.642;2023-05-10T17:11:38;22.30;49.30
16404;DHT22;8311;50.158;8.642;2023-05-10T17:14:33;22.30;49.30
16404;DHT22;8311;50.158;8.642;2023-05-10T17:17:26;22.30;49.30
16404;DHT22;8311;50.158;8.642;2023-05-10T17:20:19;22.30;49.20
16404;DHT22;8311;50.158;8.642;2023-05-10T17:23:13;22.30;49.30
16404;DHT22;8311;50.158;8.642;2023-05-10T17:26:06;22.30;49.30
16404;DHT22;8311;50.158;8.642;2023-05-10T17:29:02;22.30;49.30
16404;DHT22;8311;50.158;8.642;2023-05-10T17:31:55;22.30;49.20
16404;DHT22;8311;50.158;8.642;2023-05-10T17:34:48;22.30;49.20
16404;DHT22;8311;50.158;8.642;2023-05-10T17:37:41;22.30;49.20
16404;DHT22;8311;50.158;8.642;2023-05-10T17:40:35;22.30;49.20
16404;DHT22;8311;50.158;8.642;2023-05-10T17:43:28;22.30;49.20
16404;DHT22;8311;50.158;8.642;2023-05-10T17:46:22;22.30;49.20
16404;DHT22;8311;50.158;8.642;2023-05-10T17:49:16;22.30;49.20
16404;DHT22;8311;50.158;8.642;2023-05-10T17:52:09;22.30;49.20
16404;DHT22;8311;50.158;8.642;2023-05-10T17:55:02;22.30;49.20
16404;DHT22;8311;50.158;8.642;2023-05-10T17:57:57;22.30;49.20
16404;DHT22;8311;50.158;8.642;2023-05-10T18:00:51;22.30;49.20
16404;DHT22;8311;50.158;8.642;2023-05-10T18:03:47;22.30;49.20
16404;DHT22;8311;50.158;8.642;2023-05-10T18:06:40;22.30;49.20
16404;DHT22;8311;50.158;8.642;2023-05-10T18:09:34;22.30;49.30
16404;DHT22;8311;50.158;8.642;2023-05-10T18:12:27;22.30;49.30
16404;DHT22;8311;50.158;8.642;2023-05-10T18:15:20;22.30;49.30
16404;DHT22;8311;50.158;8.642;2023-05-10T18:18:14;22.30;49.30
16404;DHT22;8311;50.158;8.642;2023-05-10T18:21:09;22.30;49.30
16404;DHT22;8311;50.158;8.642;2023-05-10T18:24:03;22.30;49.30
16404;DHT22;8311;50.158;8.642;2023-05-10T18:26:57;22.30;49.30
16404;DHT22;8311;50.158;8.642;2023-05-10T18:29:51;22.20;49.20
16404;DHT22;8311;50.158;8.642;2023-05-10T18:32:44;22.20;49.20
16404;DHT22;8311;50.158;8.642;2023-05-10T18:35:38;22.20;49.20
16404;DHT22;8311;50.158;8.642;2023-05-10T18:38:33;22.30;49.20
16404;DHT22;8311;50.158;8.642;2023-05-10T18:41:27;22.20;49.20
16404;DHT22;8311;50.158;8.642;2023-05-10T18:44:20;22.20;49.20